createdAt,value
2018-07-02T00:00:54.144Z,23.34
2018-07-02T00:02:47.040Z,23.34
2018-07-02T00:03:47.018Z,23.32
2018-07-02T00:05:39.895Z,23.20
2018-07-02T00:06:39.919Z,23.13
2018-07-02T00:08:32.777Z,23.17
2018-07-02T00:09:32.752Z,23.08
2018-07-02T00:11:26.161Z,23.07
2018-07-02T00:12:26.132Z,22.99
2018-07-02T00:14:19.512Z,22.96
2018-07-02T00:15:19.501Z,22.98
2018-07-02T00:17:12.393Z,22.96
2018-07-02T00:18:12.368Z,22.95
2018-07-02T00:20:05.258Z,22.96
2018-07-02T00:21:05.246Z,22.93
2018-07-02T00:22:58.137Z,22.96
2018-07-02T00:23:58.118Z,23.01
2018-07-02T00:25:51.067Z,22.93
2018-07-02T00:26:50.993Z,22.91
2018-07-02T00:28:43.938Z,22.96
2018-07-02T00:29:43.860Z,22.95
2018-07-02T00:31:36.742Z,22.95
2018-07-02T00:32:36.734Z,23.01
2018-07-02T00:34:29.633Z,23.02
2018-07-02T00:35:29.610Z,23.04
2018-07-02T00:37:22.515Z,23.10
2018-07-02T00:38:22.483Z,23.18
2018-07-02T00:40:15.366Z,23.16
2018-07-02T00:41:15.353Z,23.28
2018-07-02T00:43:08.748Z,23.33
2018-07-02T00:44:08.729Z,23.33
2018-07-02T00:46:01.614Z,23.36
2018-07-02T00:47:01.617Z,23.25
2018-07-02T00:48:54.543Z,23.40
2018-07-02T00:49:54.520Z,23.33
2018-07-02T00:51:47.436Z,23.37
2018-07-02T00:52:47.424Z,23.47
2018-07-02T00:54:40.313Z,23.42
2018-07-02T00:55:40.292Z,23.40
2018-07-02T00:57:34.177Z,23.48
2018-07-02T00:58:34.161Z,23.44
2018-07-02T01:00:27.061Z,23.47
2018-07-02T01:01:27.038Z,23.49
2018-07-02T01:03:19.937Z,23.52
2018-07-02T01:04:19.907Z,23.52
2018-07-02T01:06:12.793Z,23.52
2018-07-02T01:07:12.783Z,23.55
2018-07-02T01:09:05.686Z,23.48
2018-07-02T01:10:05.652Z,23.48
2018-07-02T01:11:59.041Z,23.40
2018-07-02T01:12:59.029Z,23.29
2018-07-02T01:14:52.909Z,23.37
2018-07-02T01:15:52.890Z,23.26
2018-07-02T01:17:45.762Z,23.17
2018-07-02T01:18:45.752Z,23.13
2018-07-02T01:20:38.648Z,22.99
2018-07-02T01:21:38.621Z,23.01
2018-07-02T01:23:31.501Z,23.01
2018-07-02T01:24:31.492Z,22.96
2018-07-02T01:26:24.384Z,22.95
2018-07-02T01:27:24.366Z,23.01
2018-07-02T01:29:17.251Z,22.99
2018-07-02T01:30:17.240Z,23.02
2018-07-02T01:32:10.132Z,23.10
2018-07-02T01:33:10.109Z,23.06
2018-07-02T01:35:03.009Z,23.11
2018-07-02T01:36:02.988Z,23.04
2018-07-02T01:37:55.865Z,23.11
2018-07-02T01:38:55.855Z,23.14
2018-07-02T01:40:48.746Z,23.16
2018-07-02T01:41:48.723Z,23.21
2018-07-02T01:43:41.606Z,23.21
2018-07-02T01:44:41.601Z,23.17
2018-07-02T01:46:34.489Z,23.23
2018-07-02T01:47:34.472Z,23.21
2018-07-02T01:49:28.835Z,23.16
2018-07-02T01:50:28.842Z,23.08
2018-07-02T01:52:21.718Z,23.01
2018-07-02T01:53:21.696Z,22.99
2018-07-02T01:55:14.609Z,22.99
2018-07-02T01:56:14.574Z,23.06
2018-07-02T01:58:07.460Z,23.04
2018-07-02T01:59:07.453Z,22.98
2018-07-02T02:01:00.340Z,23.01
2018-07-02T02:02:00.319Z,22.99
2018-07-02T02:03:53.202Z,22.93
2018-07-02T02:04:53.188Z,22.80
2018-07-02T02:06:46.077Z,22.83
2018-07-02T02:07:46.054Z,22.78
2018-07-02T02:09:38.932Z,22.81
2018-07-02T02:10:38.923Z,22.80
2018-07-02T02:12:31.811Z,22.80
2018-07-02T02:13:31.790Z,22.80
2018-07-02T02:15:24.668Z,22.77
2018-07-02T02:16:24.653Z,22.68
2018-07-02T02:18:17.546Z,22.81
2018-07-02T02:19:17.524Z,22.70
2018-07-02T02:21:10.431Z,22.78
2018-07-02T02:22:10.412Z,22.80
2018-07-02T02:24:03.286Z,22.77
2018-07-02T02:25:03.277Z,22.77
2018-07-02T02:26:56.168Z,22.84
2018-07-02T02:27:56.144Z,22.83
2018-07-02T02:29:50.010Z,22.80
2018-07-02T02:30:50.002Z,22.86
2018-07-02T02:32:42.891Z,22.84
2018-07-02T02:33:42.868Z,22.81
2018-07-02T02:35:35.756Z,22.84
2018-07-02T02:36:35.746Z,22.84
2018-07-02T02:38:28.665Z,22.88
2018-07-02T02:39:28.618Z,22.83
2018-07-02T02:41:21.506Z,22.86
2018-07-02T02:42:21.484Z,22.81
2018-07-02T02:44:14.363Z,22.81
2018-07-02T02:45:14.349Z,22.81
2018-07-02T02:47:07.245Z,22.84
2018-07-02T02:48:07.228Z,22.80
2018-07-02T02:50:00.104Z,22.91
2018-07-02T02:51:00.094Z,22.93
2018-07-02T02:52:52.984Z,23.01
2018-07-02T02:53:52.962Z,22.95
2018-07-02T02:55:45.866Z,22.92
2018-07-02T02:56:45.833Z,22.92
2018-07-02T02:58:38.728Z,22.99
2018-07-02T02:59:38.704Z,22.91
2018-07-02T03:01:31.584Z,23.01
2018-07-02T03:02:31.574Z,22.98
2018-07-02T03:04:25.475Z,22.95
2018-07-02T03:05:25.444Z,22.98
2018-07-02T03:07:18.321Z,22.91
2018-07-02T03:08:18.313Z,22.92
2018-07-02T03:10:11.210Z,22.91
2018-07-02T03:11:11.186Z,22.92
2018-07-02T03:13:05.068Z,22.98
2018-07-02T03:14:05.046Z,22.98
2018-07-02T03:15:57.926Z,22.96
2018-07-02T03:16:57.913Z,23.04
2018-07-02T03:18:51.797Z,23.02
2018-07-02T03:19:51.772Z,22.98
2018-07-02T03:21:44.650Z,23.02
2018-07-02T03:22:44.640Z,23.04
2018-07-02T03:24:38.519Z,23.02
2018-07-02T03:25:38.496Z,22.99
2018-07-02T03:27:31.376Z,23.01
2018-07-02T03:28:31.365Z,22.93
2018-07-02T03:30:24.255Z,22.96
2018-07-02T03:31:24.235Z,22.91
2018-07-02T03:33:17.131Z,22.93
2018-07-02T03:34:17.103Z,22.92
2018-07-02T03:36:09.984Z,22.95
2018-07-02T03:37:09.976Z,22.92
2018-07-02T03:39:02.862Z,22.96
2018-07-02T03:40:02.841Z,22.98
2018-07-02T03:41:55.726Z,22.96
2018-07-02T03:42:55.712Z,22.95
2018-07-02T03:44:48.594Z,22.99
2018-07-02T03:45:48.574Z,22.92
2018-07-02T03:47:41.452Z,22.81
2018-07-02T03:48:41.441Z,22.74
2018-07-02T03:50:35.313Z,22.74
2018-07-02T03:51:35.292Z,22.74
2018-07-02T03:53:28.182Z,22.81
2018-07-02T03:54:28.160Z,22.88
2018-07-02T03:56:21.051Z,22.93
2018-07-02T03:57:21.028Z,22.95
2018-07-02T03:59:13.920Z,23.02
2018-07-02T04:00:13.898Z,22.98
2018-07-02T04:02:06.782Z,23.11
2018-07-02T04:03:06.762Z,23.07
2018-07-02T04:04:59.645Z,23.14
2018-07-02T04:05:59.623Z,23.13
2018-07-02T04:07:53.004Z,23.28
2018-07-02T04:08:52.990Z,23.26
2018-07-02T04:10:45.882Z,23.32
2018-07-02T04:11:45.861Z,23.34
2018-07-02T04:13:38.737Z,23.40
2018-07-02T04:14:38.725Z,23.47
2018-07-02T04:16:31.618Z,23.49
2018-07-02T04:17:31.593Z,23.48
2018-07-02T04:19:24.468Z,23.58
2018-07-02T04:20:24.462Z,23.52
2018-07-02T04:22:18.332Z,23.69
2018-07-02T04:23:18.325Z,23.66
2018-07-02T04:25:11.201Z,23.66
2018-07-02T04:26:11.177Z,23.62
2018-07-02T04:28:04.054Z,23.70
2018-07-02T04:29:04.045Z,23.73
2018-07-02T04:30:56.937Z,23.70
2018-07-02T04:31:56.913Z,23.71
2018-07-02T04:33:49.788Z,23.82
2018-07-02T04:34:49.777Z,23.84
2018-07-02T04:36:42.669Z,23.82
2018-07-02T04:37:42.641Z,23.77
2018-07-02T04:39:35.518Z,23.85
2018-07-02T04:40:35.517Z,23.82
2018-07-02T04:42:28.407Z,23.88
2018-07-02T04:43:28.374Z,23.84
2018-07-02T04:45:21.271Z,23.86
2018-07-02T04:46:21.243Z,23.89
2018-07-02T04:48:14.114Z,23.89
2018-07-02T04:49:14.104Z,23.91
2018-07-02T04:51:06.992Z,23.91
2018-07-02T04:52:06.969Z,23.94
2018-07-02T04:53:59.847Z,23.89
2018-07-02T04:54:59.832Z,23.92
2018-07-02T04:56:52.727Z,23.92
2018-07-02T04:57:52.702Z,23.92
2018-07-02T04:59:45.631Z,23.94
2018-07-02T05:00:45.564Z,23.94
2018-07-02T05:02:38.456Z,23.96
2018-07-02T05:03:38.432Z,23.92
2018-07-02T05:05:31.308Z,23.99
2018-07-02T05:06:31.300Z,23.89
2018-07-02T05:08:24.187Z,23.91
2018-07-02T05:09:24.161Z,23.88
2018-07-02T05:11:18.049Z,23.92
2018-07-02T05:12:18.029Z,23.94
2018-07-02T05:14:10.899Z,23.92
2018-07-02T05:15:10.888Z,23.92
2018-07-02T05:17:04.785Z,23.92
2018-07-02T05:18:04.750Z,23.94
2018-07-02T05:19:57.629Z,23.89
2018-07-02T05:20:57.618Z,23.95
2018-07-02T05:22:50.502Z,23.94
2018-07-02T05:23:50.483Z,23.92
2018-07-02T05:25:44.352Z,23.92
2018-07-02T05:26:44.340Z,23.96
2018-07-02T05:28:37.231Z,24.06
2018-07-02T05:29:37.210Z,23.99
2018-07-02T05:31:30.123Z,24.04
2018-07-02T05:32:30.083Z,24.01
2018-07-02T05:34:22.956Z,24.09
2018-07-02T05:35:22.946Z,24.11
2018-07-02T05:37:16.334Z,24.09
2018-07-02T05:38:16.311Z,24.07
2018-07-02T05:40:09.196Z,24.13
2018-07-02T05:41:09.184Z,24.09
2018-07-02T05:43:02.074Z,24.13
2018-07-02T05:44:02.048Z,24.16
2018-07-02T05:45:54.927Z,24.11
2018-07-02T05:46:54.916Z,24.07
2018-07-02T05:48:48.295Z,24.14
2018-07-02T05:49:48.271Z,24.16
2018-07-02T05:51:41.150Z,24.14
2018-07-02T05:52:41.140Z,24.11
2018-07-02T05:54:34.556Z,24.18
2018-07-02T05:55:34.505Z,24.16
2018-07-02T05:57:28.887Z,24.19
2018-07-02T05:58:28.860Z,24.14
2018-07-02T06:00:21.834Z,24.14
2018-07-02T06:01:21.732Z,24.22
2018-07-02T06:03:14.732Z,24.22
2018-07-02T06:04:14.601Z,24.19
2018-07-02T06:06:08.472Z,24.26
2018-07-02T06:07:08.456Z,24.14
2018-07-02T06:09:01.345Z,24.22
2018-07-02T06:10:01.354Z,24.18
2018-07-02T06:11:54.206Z,24.25
2018-07-02T06:12:54.196Z,24.18
2018-07-02T06:14:47.095Z,24.29
2018-07-02T06:15:47.070Z,24.29
2018-07-02T06:17:39.953Z,24.31
2018-07-02T06:18:39.940Z,24.32
2018-07-02T06:20:32.829Z,24.32
2018-07-02T06:21:32.807Z,24.44
2018-07-02T06:23:25.692Z,24.43
2018-07-02T06:24:25.671Z,24.44
2018-07-02T06:26:18.546Z,24.41
2018-07-02T06:27:18.675Z,24.37
2018-07-02T06:29:11.428Z,24.44
2018-07-02T06:30:11.409Z,24.44
2018-07-02T06:32:05.280Z,24.53
2018-07-02T06:33:05.260Z,24.50
2018-07-02T06:34:59.139Z,24.55
2018-07-02T06:35:59.116Z,24.50
2018-07-02T06:37:52.203Z,24.65
2018-07-02T06:38:52.185Z,24.65
2018-07-02T06:40:45.138Z,24.56
2018-07-02T06:41:45.130Z,24.55
2018-07-02T06:43:39.188Z,24.62
2018-07-02T06:44:37.997Z,24.66
2018-07-02T06:46:30.895Z,24.65
2018-07-02T06:47:30.873Z,24.68
2018-07-02T06:49:23.764Z,24.68
2018-07-02T06:50:23.740Z,24.66
2018-07-02T06:52:16.616Z,24.69
2018-07-02T06:53:16.605Z,24.75
2018-07-02T06:55:09.494Z,24.68
2018-07-02T06:56:09.473Z,24.77
2018-07-02T06:58:02.348Z,24.86
2018-07-02T06:59:02.338Z,24.86
2018-07-02T07:00:55.225Z,24.84
2018-07-02T07:01:55.206Z,24.79
2018-07-02T07:03:48.083Z,24.88
2018-07-02T07:04:48.071Z,24.89
2018-07-02T07:06:40.961Z,24.96
2018-07-02T07:07:40.941Z,24.79
2018-07-02T07:09:33.830Z,24.99
2018-07-02T07:10:33.814Z,24.99
2018-07-02T07:12:26.703Z,24.99
2018-07-02T07:13:26.682Z,25.01
2018-07-02T07:15:19.569Z,24.94
2018-07-02T07:16:19.548Z,25.00
2018-07-02T07:18:12.454Z,25.07
2018-07-02T07:19:12.416Z,25.09
2018-07-02T07:21:05.308Z,25.04
2018-07-02T07:22:05.289Z,25.03
2018-07-02T07:23:58.161Z,25.07
2018-07-02T07:24:58.155Z,25.14
2018-07-02T07:26:51.048Z,25.15
2018-07-02T07:27:51.021Z,25.11
2018-07-02T07:29:43.898Z,25.19
2018-07-02T07:30:43.888Z,25.26
2018-07-02T07:32:36.779Z,25.22
2018-07-02T07:33:36.755Z,25.18
2018-07-02T07:35:29.647Z,25.31
2018-07-02T07:36:29.623Z,25.29
2018-07-02T07:38:22.499Z,25.22
2018-07-02T07:39:22.497Z,25.33
2018-07-02T07:41:15.381Z,25.24
2018-07-02T07:42:15.361Z,25.24
2018-07-02T07:44:08.244Z,25.36
2018-07-02T07:45:08.228Z,25.41
2018-07-02T07:47:01.119Z,25.44
2018-07-02T07:48:01.097Z,25.49
2018-07-02T07:49:53.976Z,25.54
2018-07-02T07:50:53.964Z,25.43
2018-07-02T07:52:46.859Z,25.49
2018-07-02T07:53:46.846Z,25.48
2018-07-02T07:55:39.716Z,25.67
2018-07-02T07:56:39.706Z,25.58
2018-07-02T07:58:32.597Z,25.56
2018-07-02T07:59:32.605Z,25.62
2018-07-02T08:01:27.451Z,25.62
2018-07-02T08:02:27.434Z,25.61
2018-07-02T08:03:27.425Z,25.66
2018-07-02T08:04:27.421Z,25.67
2018-07-02T08:05:27.416Z,25.70
2018-07-02T08:06:27.408Z,25.70
2018-07-02T08:07:27.401Z,25.70
2018-07-02T08:08:27.397Z,25.71
2018-07-02T08:09:27.389Z,25.71
2018-07-02T08:10:27.403Z,25.74
2018-07-02T08:11:27.378Z,25.74
2018-07-02T08:12:27.391Z,25.83
2018-07-02T08:13:27.363Z,25.80
2018-07-02T08:14:27.356Z,25.86
2018-07-02T08:15:27.353Z,25.86
2018-07-02T08:16:27.345Z,25.92
2018-07-02T08:17:27.342Z,25.92
2018-07-02T08:18:27.332Z,25.99
2018-07-02T08:19:27.326Z,25.98
2018-07-02T08:20:27.322Z,25.98
2018-07-02T08:21:27.312Z,25.99
2018-07-02T08:22:27.308Z,26.04
2018-07-02T08:23:27.301Z,26.06
2018-07-02T08:24:27.303Z,26.06
2018-07-02T08:25:27.288Z,26.08
2018-07-02T08:26:27.283Z,26.07
2018-07-02T08:27:27.279Z,26.13
2018-07-02T08:28:27.274Z,26.13
2018-07-02T08:29:27.268Z,26.01
2018-07-02T08:30:27.258Z,26.11
2018-07-02T08:31:27.252Z,25.98
2018-07-02T08:32:27.248Z,25.99
2018-07-02T08:33:27.240Z,26.18
2018-07-02T08:34:27.234Z,26.16
2018-07-02T08:35:27.230Z,26.13
2018-07-02T08:36:27.227Z,26.13
2018-07-02T08:37:27.218Z,26.22
2018-07-02T08:38:27.223Z,26.15
2018-07-02T08:39:27.203Z,26.19
2018-07-02T08:40:27.199Z,26.29
2018-07-02T08:41:27.217Z,26.26
2018-07-02T08:42:27.180Z,26.30
2018-07-02T08:43:27.180Z,26.31
2018-07-02T08:44:27.173Z,26.34
2018-07-02T08:45:27.166Z,26.34
2018-07-02T08:46:27.164Z,26.36
2018-07-02T08:47:27.157Z,26.41
2018-07-02T08:48:27.152Z,26.49
2018-07-02T08:49:27.144Z,26.48
2018-07-02T08:50:27.137Z,26.52
2018-07-02T08:51:27.133Z,26.55
2018-07-02T08:52:27.126Z,26.53
2018-07-02T08:53:27.121Z,26.52
2018-07-02T08:54:27.118Z,26.61
2018-07-02T08:55:27.107Z,26.61
2018-07-02T08:56:27.102Z,26.59
2018-07-02T08:57:27.096Z,26.60
2018-07-02T08:58:27.092Z,26.60
2018-07-02T08:59:27.086Z,26.71
2018-07-02T09:00:27.080Z,26.64
2018-07-02T09:01:27.074Z,26.67
2018-07-02T09:02:27.068Z,26.70
2018-07-02T09:03:27.063Z,26.73
2018-07-02T09:04:27.057Z,26.71
2018-07-02T09:05:27.052Z,26.76
2018-07-02T09:06:27.068Z,26.74
2018-07-02T09:07:27.040Z,26.81
2018-07-02T09:08:27.035Z,26.88
2018-07-02T09:09:27.028Z,26.91
2018-07-02T09:10:27.022Z,26.82
2018-07-02T09:11:27.016Z,26.78
2018-07-02T09:12:27.012Z,26.89
2018-07-02T09:13:27.005Z,26.89
2018-07-02T09:14:26.998Z,26.82
2018-07-02T09:15:26.995Z,26.89
2018-07-02T09:16:26.986Z,26.92
2018-07-02T09:17:26.983Z,27.03
2018-07-02T09:18:26.977Z,26.98
2018-07-02T09:19:26.971Z,27.01
2018-07-02T09:20:26.964Z,27.04
2018-07-02T09:21:26.963Z,27.04
2018-07-02T09:22:26.954Z,27.00
2018-07-02T09:23:26.948Z,27.07
2018-07-02T09:24:26.944Z,27.05
2018-07-02T09:25:26.941Z,27.10
2018-07-02T09:26:26.932Z,27.16
2018-07-02T09:27:26.931Z,27.08
2018-07-02T09:28:26.919Z,27.11
2018-07-02T09:29:26.917Z,27.22
2018-07-02T09:30:26.910Z,27.19
2018-07-02T09:31:26.903Z,27.23
2018-07-02T09:32:26.905Z,27.28
2018-07-02T09:33:26.893Z,27.07
2018-07-02T09:34:26.888Z,27.25
2018-07-02T09:35:26.882Z,27.13
2018-07-02T09:36:26.881Z,27.25
2018-07-02T09:37:26.872Z,27.11
2018-07-02T09:38:26.868Z,27.26
2018-07-02T09:39:26.996Z,27.23
2018-07-02T09:40:26.853Z,27.20
2018-07-02T09:41:26.849Z,27.26
2018-07-02T09:42:26.942Z,27.23
2018-07-02T09:43:26.839Z,27.35
2018-07-02T09:44:26.834Z,27.35
2018-07-02T09:45:26.970Z,27.22
2018-07-02T09:46:26.824Z,27.34
2018-07-02T09:47:26.816Z,27.34
2018-07-02T09:48:26.809Z,27.38
2018-07-02T09:49:26.842Z,27.35
2018-07-02T09:50:26.799Z,27.34
2018-07-02T09:51:26.794Z,27.34
2018-07-02T09:52:26.790Z,27.41
2018-07-02T09:53:26.785Z,27.41
2018-07-02T09:54:26.777Z,27.37
2018-07-02T09:55:26.775Z,27.40
2018-07-02T09:56:26.768Z,27.43
2018-07-02T09:57:26.762Z,27.37
2018-07-02T09:58:26.756Z,27.50
2018-07-02T09:59:26.751Z,27.44
2018-07-02T10:00:26.745Z,27.48
2018-07-02T10:01:26.741Z,27.44
2018-07-02T10:02:26.738Z,27.52
2018-07-02T10:03:26.916Z,27.44
2018-07-02T10:04:26.725Z,27.45
2018-07-02T10:05:26.728Z,27.57
2018-07-02T10:06:26.814Z,27.58
2018-07-02T10:07:26.709Z,27.47
2018-07-02T10:08:26.707Z,27.58
2018-07-02T10:09:26.698Z,27.57
2018-07-02T10:10:26.693Z,27.57
2018-07-02T10:11:26.688Z,27.55
2018-07-02T10:12:26.683Z,27.57
2018-07-02T10:13:26.678Z,27.53
2018-07-02T10:14:26.673Z,27.58
2018-07-02T10:15:26.667Z,27.66
2018-07-02T10:16:26.662Z,27.66
2018-07-02T10:17:26.656Z,27.66
2018-07-02T10:18:26.652Z,27.67
2018-07-02T10:19:26.648Z,27.64
2018-07-02T10:20:26.643Z,27.60
2018-07-02T10:21:26.636Z,27.72
2018-07-02T10:22:26.632Z,27.68
2018-07-02T10:23:26.747Z,27.71
2018-07-02T10:24:26.623Z,27.68
2018-07-02T10:25:26.617Z,27.71
2018-07-02T10:26:26.609Z,27.67
2018-07-02T10:27:26.608Z,27.67
2018-07-02T10:28:26.602Z,27.67
2018-07-02T10:29:26.614Z,27.78
2018-07-02T10:30:26.590Z,27.76
2018-07-02T10:31:26.782Z,27.67
2018-07-02T10:32:26.580Z,27.73
2018-07-02T10:33:26.573Z,27.73
2018-07-02T10:34:26.568Z,27.83
2018-07-02T10:35:26.564Z,27.83
2018-07-02T10:36:26.557Z,27.76
2018-07-02T10:37:26.825Z,27.81
2018-07-02T10:38:26.548Z,27.79
2018-07-02T10:39:26.545Z,27.79
2018-07-02T10:40:26.540Z,27.72
2018-07-02T10:41:26.532Z,27.76
2018-07-02T10:42:26.527Z,27.78
2018-07-02T10:43:26.523Z,27.90
2018-07-02T10:44:26.523Z,27.82
2018-07-02T10:45:26.613Z,27.81
2018-07-02T10:46:26.519Z,27.81
2018-07-02T10:47:26.506Z,27.82
2018-07-02T10:48:26.496Z,27.79
2018-07-02T10:49:26.492Z,27.83
2018-07-02T10:50:26.491Z,27.85
2018-07-02T10:51:26.483Z,27.79
2018-07-02T10:52:26.477Z,27.82
2018-07-02T10:53:26.470Z,27.82
2018-07-02T10:54:26.467Z,27.86
2018-07-02T10:55:26.462Z,27.79
2018-07-02T10:56:26.460Z,27.81
2018-07-02T10:57:26.454Z,27.75
2018-07-02T10:58:26.447Z,27.86
2018-07-02T10:59:26.445Z,27.82
2018-07-02T11:00:26.437Z,27.86
2018-07-02T11:01:26.516Z,27.83
2018-07-02T11:02:26.430Z,27.81
2018-07-02T11:03:26.421Z,27.86
2018-07-02T11:04:26.421Z,27.85
2018-07-02T11:05:26.412Z,27.88
2018-07-02T11:06:26.408Z,27.81
2018-07-02T11:07:26.401Z,27.79
2018-07-02T11:08:26.396Z,27.82
2018-07-02T11:09:26.392Z,27.82
2018-07-02T11:10:26.386Z,27.78
2018-07-02T11:11:26.383Z,27.86
2018-07-02T11:12:26.378Z,27.79
2018-07-02T11:13:26.371Z,27.82
2018-07-02T11:14:26.369Z,27.82
2018-07-02T11:15:26.363Z,27.81
2018-07-02T11:16:26.358Z,27.82
2018-07-02T11:17:26.352Z,27.81
2018-07-02T11:18:26.347Z,27.81
2018-07-02T11:19:26.348Z,27.78
2018-07-02T11:20:26.336Z,27.82
2018-07-02T11:21:26.345Z,27.91
2018-07-02T11:22:26.330Z,27.83
2018-07-02T11:23:26.323Z,27.78
2018-07-02T11:24:26.323Z,27.82
2018-07-02T11:25:26.321Z,27.85
2018-07-02T11:26:26.346Z,27.82
2018-07-02T11:27:26.371Z,27.76
2018-07-02T11:28:26.298Z,27.85
2018-07-02T11:29:26.417Z,27.82
2018-07-02T11:30:26.287Z,27.79
2018-07-02T11:31:26.283Z,27.81
2018-07-02T11:32:26.272Z,27.73
2018-07-02T11:33:26.271Z,27.79
2018-07-02T11:34:26.267Z,27.83
2018-07-02T11:35:26.263Z,27.78
2018-07-02T11:36:26.261Z,27.76
2018-07-02T11:37:26.269Z,27.79
2018-07-02T11:38:26.248Z,27.82
2018-07-02T11:39:26.243Z,27.86
2018-07-02T11:40:26.310Z,27.76
2018-07-02T11:41:26.259Z,27.82
2018-07-02T11:42:26.229Z,27.79
2018-07-02T11:43:26.223Z,27.78
2018-07-02T11:44:26.216Z,27.79
2018-07-02T11:45:26.212Z,27.79
2018-07-02T11:46:26.207Z,27.79
2018-07-02T11:47:26.205Z,27.75
2018-07-02T11:48:26.223Z,27.83
2018-07-02T11:49:26.274Z,27.81
2018-07-02T11:50:26.187Z,27.79
2018-07-02T11:51:26.182Z,27.75
2018-07-02T11:52:26.180Z,27.72
2018-07-02T11:53:26.175Z,27.78
2018-07-02T11:54:26.168Z,27.88
2018-07-02T11:55:26.164Z,27.81
2018-07-02T11:56:26.157Z,27.83
2018-07-02T11:57:26.179Z,27.75
2018-07-02T11:58:26.148Z,27.78
2018-07-02T11:59:26.144Z,27.83
2018-07-02T12:00:26.137Z,27.75
2018-07-02T12:01:26.133Z,27.68
2018-07-02T12:02:26.131Z,27.79
2018-07-02T12:03:26.123Z,27.67
2018-07-02T12:04:26.122Z,27.75
2018-07-02T12:05:26.114Z,27.79
2018-07-02T12:06:26.108Z,27.68
2018-07-02T12:07:26.105Z,27.64
2018-07-02T12:08:26.098Z,27.72
2018-07-02T12:09:26.092Z,27.72
2018-07-02T12:10:26.090Z,27.72
2018-07-02T12:11:26.083Z,27.67
2018-07-02T12:12:26.078Z,27.68
2018-07-02T12:13:26.082Z,27.71
2018-07-02T12:14:26.068Z,27.73
2018-07-02T12:15:26.091Z,27.66
2018-07-02T12:16:26.057Z,27.64
2018-07-02T12:17:26.053Z,27.63
2018-07-02T12:18:26.171Z,27.58
2018-07-02T12:19:26.343Z,27.66
2018-07-02T12:20:26.078Z,27.50
2018-07-02T12:21:26.067Z,27.67
2018-07-02T12:22:26.028Z,27.53
2018-07-02T12:23:26.024Z,27.55
2018-07-02T12:24:26.017Z,27.60
2018-07-02T12:25:26.015Z,27.50
2018-07-02T12:26:26.031Z,27.55
2018-07-02T12:27:26.003Z,27.55
2018-07-02T12:28:25.996Z,27.52
2018-07-02T12:29:25.990Z,27.57
2018-07-02T12:30:25.987Z,27.52
2018-07-02T12:31:25.982Z,27.57
2018-07-02T12:32:25.976Z,27.58
2018-07-02T12:33:25.974Z,27.47
2018-07-02T12:34:25.968Z,27.53
2018-07-02T12:35:25.962Z,27.52
2018-07-02T12:36:25.956Z,27.43
2018-07-02T12:37:25.951Z,27.52
2018-07-02T12:38:25.946Z,27.45
2018-07-02T12:39:25.943Z,27.50
2018-07-02T12:40:25.934Z,27.45
2018-07-02T12:41:25.933Z,27.45
2018-07-02T12:42:25.924Z,27.43
2018-07-02T12:43:25.920Z,27.47
2018-07-02T12:44:25.916Z,27.45
2018-07-02T12:45:25.910Z,27.34
2018-07-02T12:46:25.912Z,27.44
2018-07-02T12:47:25.899Z,27.40
2018-07-02T12:48:25.894Z,27.35
2018-07-02T12:49:25.891Z,27.35
2018-07-02T12:50:25.885Z,27.41
2018-07-02T12:51:25.879Z,27.38
2018-07-02T12:52:25.874Z,27.35
2018-07-02T12:53:25.869Z,27.38
2018-07-02T12:54:25.959Z,27.38
2018-07-02T12:55:25.859Z,27.38
2018-07-02T12:56:25.853Z,27.41
2018-07-02T12:57:25.849Z,27.43
2018-07-02T12:58:25.844Z,27.30
2018-07-02T12:59:25.844Z,27.35
2018-07-02T13:00:25.832Z,27.35
2018-07-02T13:01:25.826Z,27.37
2018-07-02T13:02:25.820Z,27.34
2018-07-02T13:03:25.818Z,27.33
2018-07-02T13:04:25.811Z,27.35
2018-07-02T13:05:25.806Z,27.37
2018-07-02T13:06:25.802Z,27.34
2018-07-02T13:07:25.797Z,27.38
2018-07-02T13:08:25.797Z,27.41
2018-07-02T13:09:25.791Z,27.26
2018-07-02T13:10:25.782Z,27.34
2018-07-02T13:11:25.779Z,27.29
2018-07-02T13:12:25.769Z,27.33
2018-07-02T13:13:25.810Z,27.23
2018-07-02T13:14:25.759Z,27.38
2018-07-02T13:15:25.754Z,27.29
2018-07-02T13:16:25.750Z,27.20
2018-07-02T13:17:25.745Z,27.19
2018-07-02T13:18:25.741Z,27.26
2018-07-02T13:19:25.734Z,27.26
2018-07-02T13:20:25.733Z,27.26
2018-07-02T13:21:25.732Z,27.28
2018-07-02T13:22:25.720Z,27.23
2018-07-02T13:23:25.713Z,27.23
2018-07-02T13:24:25.714Z,27.23
2018-07-02T13:25:25.702Z,27.33
2018-07-02T13:26:25.697Z,27.30
2018-07-02T13:27:25.695Z,27.29
2018-07-02T13:28:25.684Z,27.37
2018-07-02T13:29:25.681Z,27.33
2018-07-02T13:30:25.681Z,27.38
2018-07-02T13:31:25.670Z,27.20
2018-07-02T13:32:25.665Z,27.23
2018-07-02T13:33:25.659Z,27.30
2018-07-02T13:34:25.789Z,27.28
2018-07-02T13:35:25.650Z,27.23
2018-07-02T13:36:25.669Z,27.33
2018-07-02T13:37:25.639Z,27.20
2018-07-02T13:38:25.632Z,27.23
2018-07-02T13:39:25.630Z,27.22
2018-07-02T13:40:25.623Z,27.20
2018-07-02T13:41:25.616Z,27.25
2018-07-02T13:42:25.616Z,27.19
2018-07-02T13:43:25.608Z,27.20
2018-07-02T13:44:25.603Z,27.33
2018-07-02T13:45:25.621Z,27.34
2018-07-02T13:46:25.592Z,27.35
2018-07-02T13:47:25.587Z,27.23
2018-07-02T13:48:25.580Z,27.30
2018-07-02T13:49:25.623Z,27.33
2018-07-02T13:50:25.573Z,27.22
2018-07-02T13:51:25.566Z,27.30
2018-07-02T13:52:25.560Z,27.25
2018-07-02T13:53:25.554Z,27.26
2018-07-02T13:54:25.550Z,27.34
2018-07-02T13:55:25.543Z,27.22
2018-07-02T13:56:25.539Z,27.25
2018-07-02T13:57:25.533Z,27.34
2018-07-02T13:58:25.529Z,27.26
2018-07-02T13:59:25.524Z,27.33
2018-07-02T14:00:25.517Z,27.33
2018-07-02T14:01:25.516Z,27.23
2018-07-02T14:02:25.515Z,27.20
2018-07-02T14:03:25.504Z,27.28
2018-07-02T14:04:25.497Z,27.20
2018-07-02T14:05:25.491Z,27.23
2018-07-02T14:06:25.489Z,27.20
2018-07-02T14:07:25.483Z,27.28
2018-07-02T14:08:25.477Z,27.23
2018-07-02T14:09:25.470Z,27.26
2018-07-02T14:10:25.465Z,27.25
2018-07-02T14:11:25.460Z,27.20
2018-07-02T14:12:25.453Z,27.20
2018-07-02T14:13:25.451Z,27.26
2018-07-02T14:14:25.491Z,27.20
2018-07-02T14:15:25.439Z,27.30
2018-07-02T14:16:25.432Z,27.22
2018-07-02T14:17:25.428Z,27.29
2018-07-02T14:18:25.421Z,27.28
2018-07-02T14:19:25.420Z,27.28
2018-07-02T14:20:25.412Z,27.25
2018-07-02T14:21:25.407Z,27.23
2018-07-02T14:22:25.401Z,27.22
2018-07-02T14:23:25.400Z,27.25
2018-07-02T14:24:25.394Z,27.20
2018-07-02T14:25:25.390Z,27.20
2018-07-02T14:26:25.380Z,27.18
2018-07-02T14:27:25.375Z,27.25
2018-07-02T14:28:25.369Z,27.19
2018-07-02T14:29:25.367Z,27.23
2018-07-02T14:30:25.361Z,27.13
2018-07-02T14:31:25.356Z,27.19
2018-07-02T14:32:25.348Z,27.19
2018-07-02T14:33:25.346Z,27.26
2018-07-02T14:34:25.330Z,27.13
2018-07-02T14:35:25.333Z,27.13
2018-07-02T14:36:25.326Z,27.29
2018-07-02T14:37:25.322Z,27.26
2018-07-02T14:38:25.319Z,27.30
2018-07-02T14:39:25.348Z,27.16
2018-07-02T14:40:25.305Z,27.18
2018-07-02T14:41:25.300Z,27.23
2018-07-02T14:42:25.295Z,27.11
2018-07-02T14:43:25.294Z,27.29
2018-07-02T14:44:25.292Z,27.22
2018-07-02T14:45:25.398Z,27.28
2018-07-02T14:46:25.274Z,27.15
2018-07-02T14:47:25.269Z,27.26
2018-07-02T14:48:25.263Z,27.26
2018-07-02T14:49:25.258Z,27.25
2018-07-02T14:50:25.252Z,27.13
2018-07-02T14:51:25.248Z,27.22
2018-07-02T14:52:25.246Z,27.11
2018-07-02T14:53:25.243Z,27.26
2018-07-02T14:54:25.251Z,27.07
2018-07-02T14:55:25.227Z,27.18
2018-07-02T14:56:25.222Z,27.25
2018-07-02T14:57:25.217Z,27.25
2018-07-02T14:58:25.211Z,27.15
2018-07-02T14:59:25.206Z,27.19
2018-07-02T15:00:25.207Z,27.26
2018-07-02T15:01:25.195Z,27.25
2018-07-02T15:02:25.190Z,27.28
2018-07-02T15:03:25.188Z,27.22
2018-07-02T15:04:25.180Z,27.23
2018-07-02T15:05:25.173Z,27.30
2018-07-02T15:06:25.169Z,27.15
2018-07-02T15:07:25.164Z,27.11
2018-07-02T15:08:25.157Z,27.25
2018-07-02T15:09:25.158Z,27.11
2018-07-02T15:10:25.146Z,27.16
2018-07-02T15:11:25.142Z,27.16
2018-07-02T15:12:25.145Z,27.23
2018-07-02T15:13:25.165Z,27.23
2018-07-02T15:14:25.128Z,27.29
2018-07-02T15:15:25.161Z,27.22
2018-07-02T15:16:25.115Z,27.16
2018-07-02T15:17:25.110Z,27.26
2018-07-02T15:18:25.105Z,27.23
2018-07-02T15:19:25.099Z,27.22
2018-07-02T15:20:25.091Z,27.16